createdAt,value
2022-11-03T00:09:37.679Z,99.30
2022-11-03T00:27:03.928Z,99.90
2022-11-03T00:44:28.466Z,99.90
2022-11-03T01:01:50.161Z,99.90
2022-11-03T01:04:36.559Z,99.90
2022-11-03T01:07:06.903Z,99.90
2022-11-03T01:09:38.554Z,99.90
2022-11-03T01:12:08.611Z,99.90
2022-11-03T01:14:41.080Z,99.90
2022-11-03T01:17:13.338Z,99.90
2022-11-03T01:34:38.688Z,99.90
2022-11-03T01:44:36.167Z,99.90
2022-11-03T01:47:17.606Z,99.90
2022-11-03T01:49:51.232Z,99.90
2022-11-03T01:52:24.516Z,99.90
2022-11-03T01:54:57.600Z,99.90
2022-11-03T01:57:30.423Z,99.90
2022-11-03T02:00:00.761Z,99.90
2022-11-03T02:05:01.863Z,99.90
2022-11-03T02:07:36.365Z,99.90
2022-11-03T02:10:06.285Z,99.90
2022-11-03T02:12:35.951Z,99.90
2022-11-03T02:15:07.767Z,99.90
2022-11-03T02:17:38.575Z,99.90
2022-11-03T02:20:12.419Z,99.90
2022-11-03T02:23:19.452Z,99.90
2022-11-03T02:25:51.964Z,99.90
2022-11-03T02:28:22.849Z,99.90
2022-11-03T02:31:05.617Z,99.90
2022-11-03T02:33:50.071Z,99.90
2022-11-03T02:36:24.404Z,99.90
2022-11-03T02:38:58.940Z,99.90
2022-11-03T02:41:29.976Z,99.90
2022-11-03T02:46:29.297Z,99.90
2022-11-03T02:54:05.805Z,99.90
2022-11-03T02:56:41.560Z,99.90
2022-11-03T02:59:12.908Z,99.90
2022-11-03T03:01:48.355Z,99.90
2022-11-03T03:04:22.333Z,99.90
2022-11-03T03:06:55.555Z,99.90
2022-11-03T03:09:28.736Z,99.90
2022-11-03T03:12:01.492Z,99.90
2022-11-03T03:14:34.139Z,99.90
2022-11-03T03:17:05.547Z,99.90
2022-11-03T03:19:46.928Z,99.90
2022-11-03T03:22:22.543Z,99.90
2022-11-03T03:24:57.545Z,99.90
2022-11-03T03:27:29.864Z,99.90
2022-11-03T03:30:02.569Z,99.90
2022-11-03T03:32:34.969Z,99.90
2022-11-03T03:35:07.637Z,99.90
2022-11-03T03:37:38.980Z,99.90
2022-11-03T03:40:13.062Z,99.90
2022-11-03T03:42:48.226Z,99.90
2022-11-03T03:45:18.062Z,99.90
2022-11-03T03:55:18.993Z,99.90
2022-11-03T03:57:48.814Z,99.90
2022-11-03T04:00:19.400Z,99.90
2022-11-03T04:10:22.007Z,99.90
2022-11-03T04:13:09.757Z,99.90
2022-11-03T04:21:30.766Z,99.90
2022-11-03T04:26:30.297Z,99.90
2022-11-03T04:29:00.296Z,99.90
2022-11-03T04:31:30.281Z,99.90
2022-11-03T04:36:27.536Z,99.90
2022-11-03T04:41:25.774Z,99.90
2022-11-03T04:46:28.433Z,99.90
2022-11-03T04:49:00.563Z,99.90
2022-11-03T04:51:32.210Z,99.90
2022-11-03T04:54:04.831Z,99.90
2022-11-03T05:01:32.083Z,99.90
2022-11-03T05:06:31.100Z,99.90
2022-11-03T05:09:01.856Z,99.90
2022-11-03T05:11:33.408Z,99.90
2022-11-03T05:14:04.773Z,99.90
2022-11-03T05:16:35.040Z,99.90
2022-11-03T05:24:11.614Z,99.90
2022-11-03T05:29:15.710Z,99.90
2022-11-03T05:31:47.742Z,99.90
2022-11-03T05:34:36.322Z,99.90
2022-11-03T05:37:26.860Z,99.90
2022-11-03T05:39:57.921Z,99.90
2022-11-03T05:42:33.810Z,99.90
2022-11-03T05:45:05.817Z,99.90
2022-11-03T05:47:38.886Z,99.90
2022-11-03T05:50:17.951Z,99.90
2022-11-03T05:52:48.309Z,99.90
2022-11-03T05:55:26.177Z,99.90
2022-11-03T05:57:56.611Z,99.90
2022-11-03T06:00:32.983Z,99.90
2022-11-03T06:03:03.278Z,99.90
2022-11-03T06:05:33.655Z,99.90
2022-11-03T06:08:03.459Z,99.90
2022-11-03T06:10:35.147Z,99.90
2022-11-03T06:13:07.111Z,99.90
2022-11-03T06:15:37.135Z,99.90
2022-11-03T06:18:16.161Z,99.90
2022-11-03T06:20:47.818Z,99.90
2022-11-03T06:23:18.381Z,99.90
2022-11-03T06:28:24.068Z,99.90
2022-11-03T06:33:26.160Z,99.90
2022-11-03T06:36:00.467Z,99.90
2022-11-03T06:38:31.189Z,99.90
2022-11-03T06:41:00.228Z,99.90
2022-11-03T06:43:37.458Z,99.90
2022-11-03T06:46:15.612Z,99.90
2022-11-03T06:48:46.699Z,99.90
2022-11-03T06:51:20.149Z,99.90
2022-11-03T06:53:49.278Z,99.90
2022-11-03T06:56:20.628Z,99.90
2022-11-03T07:01:20.968Z,99.90
2022-11-03T07:03:51.984Z,99.90
2022-11-03T07:06:27.318Z,99.90
2022-11-03T07:08:59.898Z,99.90
2022-11-03T07:11:31.034Z,99.90
2022-11-03T07:14:01.427Z,99.90
2022-11-03T07:16:32.839Z,99.90
2022-11-03T07:19:04.382Z,99.90
2022-11-03T07:21:39.446Z,99.90
2022-11-03T07:24:16.703Z,99.90
2022-11-03T07:29:22.031Z,99.90
2022-11-03T07:31:52.817Z,99.90
2022-11-03T07:34:26.192Z,99.90
2022-11-03T07:44:23.065Z,99.90
2022-11-03T07:46:52.055Z,99.90
2022-11-03T07:49:27.987Z,99.90
2022-11-03T07:51:58.026Z,99.90
2022-11-03T07:54:30.087Z,99.90
2022-11-03T07:57:01.146Z,99.90
2022-11-03T07:59:34.312Z,99.90
2022-11-03T08:04:35.676Z,99.90
2022-11-03T08:22:01.220Z,99.90
2022-11-03T08:39:24.019Z,99.90
2022-11-03T08:49:18.188Z,99.90
2022-11-03T08:54:15.037Z,99.90
2022-11-03T08:56:46.617Z,99.90
2022-11-03T09:12:04.740Z,98.30
2022-11-03T09:14:35.523Z,97.20
2022-11-03T09:29:58.297Z,96.40
2022-11-03T09:34:52.326Z,96.90
2022-11-03T09:37:22.064Z,98.20
2022-11-03T09:39:54.479Z,98.00
2022-11-03T09:42:23.609Z,95.10
2022-11-03T09:44:54.521Z,96.10
2022-11-03T09:47:26.752Z,95.30
2022-11-03T09:49:55.414Z,97.50
2022-11-03T09:52:25.351Z,95.20
2022-11-03T09:54:57.196Z,97.00
2022-11-03T09:57:27.454Z,95.30
2022-11-03T09:59:57.641Z,93.70
2022-11-03T10:02:29.692Z,96.30
2022-11-03T10:05:00.281Z,94.10
2022-11-03T10:07:32.166Z,93.90
2022-11-03T10:10:03.698Z,93.30
2022-11-03T10:12:37.761Z,93.80
2022-11-03T10:15:15.680Z,95.30
2022-11-03T10:17:45.018Z,93.20
2022-11-03T10:20:15.476Z,92.30
2022-11-03T10:22:49.041Z,94.60
2022-11-03T10:25:31.846Z,92.90
2022-11-03T10:28:15.263Z,92.80
2022-11-03T10:33:43.066Z,95.00
2022-11-03T10:36:25.455Z,95.40
2022-11-03T10:38:54.469Z,94.80
2022-11-03T10:41:24.275Z,92.20
2022-11-03T10:44:08.304Z,92.20
2022-11-03T10:46:54.797Z,93.90
2022-11-03T10:51:54.159Z,92.40
2022-11-03T10:54:24.764Z,93.10
2022-11-03T10:56:53.841Z,93.00
2022-11-03T10:59:23.862Z,93.00
2022-11-03T11:01:53.874Z,92.50
2022-11-03T11:06:52.717Z,93.30
2022-11-03T11:09:25.643Z,92.90
2022-11-03T11:12:01.901Z,93.00
2022-11-03T11:14:39.450Z,95.30
2022-11-03T11:17:42.165Z,92.80
2022-11-03T11:20:36.602Z,95.20
2022-11-03T11:23:52.491Z,92.80
2022-11-03T11:26:41.915Z,94.90
2022-11-03T11:29:46.176Z,93.70
2022-11-03T11:32:47.852Z,92.50
2022-11-03T11:35:38.599Z,93.10
2022-11-03T11:38:42.903Z,93.80
2022-11-03T11:43:39.613Z,95.70
2022-11-03T11:46:40.914Z,93.30
2022-11-03T11:49:26.929Z,94.70
2022-11-03T11:52:03.065Z,95.80
2022-11-03T11:54:31.312Z,95.80
2022-11-03T11:56:59.672Z,95.80
2022-11-03T12:01:57.756Z,97.10
2022-11-03T12:04:29.078Z,95.30
2022-11-03T12:06:58.834Z,95.90
2022-11-03T12:09:28.533Z,96.20
2022-11-03T12:12:00.705Z,96.30
2022-11-03T12:14:35.820Z,95.80
2022-11-03T12:17:35.210Z,96.30
2022-11-03T12:20:36.475Z,95.60
2022-11-03T12:23:06.051Z,97.00
2022-11-03T12:25:37.287Z,94.10
2022-11-03T12:30:39.610Z,93.40
2022-11-03T12:33:08.909Z,90.70
2022-11-03T12:35:37.287Z,91.40
2022-11-03T12:38:06.803Z,81.00
2022-11-03T12:40:35.168Z,85.30
2022-11-03T12:45:32.557Z,80.40
2022-11-03T12:57:56.244Z,80.40
2022-11-03T13:00:24.601Z,77.90
2022-11-03T13:02:52.886Z,79.60
2022-11-03T13:05:21.081Z,77.20
2022-11-03T13:07:49.379Z,77.30
2022-11-03T13:12:47.634Z,75.70
2022-11-03T13:18:11.607Z,77.30
2022-11-03T13:28:03.152Z,83.00
2022-11-03T13:30:31.405Z,82.80
2022-11-03T13:35:28.457Z,80.00
2022-11-03T13:37:56.759Z,83.70
2022-11-03T13:43:15.400Z,78.60
2022-11-03T13:45:43.790Z,81.40
2022-11-03T13:51:02.139Z,82.40
2022-11-03T13:56:21.947Z,78.70
2022-11-03T14:07:13.886Z,80.30
2022-11-03T14:09:42.144Z,82.30
2022-11-03T14:14:57.642Z,81.70
2022-11-03T14:22:32.645Z,83.30
2022-11-03T14:25:01.156Z,83.50
2022-11-03T14:27:30.359Z,83.70
2022-11-03T14:29:59.919Z,86.10
2022-11-03T14:32:28.213Z,86.90
2022-11-03T14:34:56.901Z,83.30
2022-11-03T14:37:25.807Z,89.00
2022-11-03T14:39:54.089Z,87.70
2022-11-03T14:44:50.073Z,89.80
2022-11-03T14:47:22.018Z,84.10
2022-11-03T14:49:50.402Z,84.70
2022-11-03T14:52:19.649Z,86.40
2022-11-03T15:02:22.878Z,87.60
2022-11-03T15:07:20.421Z,89.70
2022-11-03T15:09:48.746Z,87.90
2022-11-03T15:19:44.686Z,84.60
2022-11-03T15:27:30.455Z,90.00
2022-11-03T15:29:59.526Z,88.90
2022-11-03T15:32:32.622Z,90.50
2022-11-03T15:35:06.620Z,90.20
2022-11-03T15:37:34.778Z,89.30
2022-11-03T15:45:00.845Z,90.40
2022-11-03T15:52:28.552Z,91.00
2022-11-03T15:54:56.963Z,88.20
2022-11-03T15:59:56.856Z,90.80
2022-11-03T16:02:41.046Z,88.30
2022-11-03T16:05:11.270Z,87.50
2022-11-03T16:07:41.258Z,91.20
2022-11-03T16:10:10.282Z,87.30
2022-11-03T16:15:08.665Z,88.10
2022-11-03T16:22:43.097Z,89.50
2022-11-03T16:25:13.415Z,88.80
2022-11-03T16:30:12.779Z,87.90
2022-11-03T16:32:40.981Z,91.00
2022-11-03T16:35:09.895Z,91.30
2022-11-03T16:40:12.528Z,87.20
2022-11-03T16:42:44.806Z,90.10
2022-11-03T16:45:18.742Z,88.30
2022-11-03T16:47:47.648Z,87.80
2022-11-03T16:55:15.399Z,87.80
2022-11-03T16:57:44.481Z,87.90
2022-11-03T17:00:15.672Z,87.90
2022-11-03T17:02:44.439Z,91.30
2022-11-03T17:05:13.776Z,88.20
2022-11-03T17:07:41.867Z,90.70
2022-11-03T17:10:11.455Z,89.00
2022-11-03T17:12:41.132Z,90.00
2022-11-03T17:15:10.166Z,92.20
2022-11-03T17:20:09.020Z,91.30
2022-11-03T17:25:07.901Z,92.80
2022-11-03T17:27:43.072Z,94.10
2022-11-03T17:30:15.847Z,95.30
2022-11-03T17:32:45.118Z,96.50
2022-11-03T17:35:21.317Z,97.20
2022-11-03T17:40:21.605Z,98.40
2022-11-03T17:42:51.943Z,98.40
2022-11-03T17:45:24.200Z,99.00
2022-11-03T17:50:23.715Z,99.00
2022-11-03T17:52:52.709Z,99.90
2022-11-03T17:55:26.505Z,99.90
2022-11-03T17:57:57.398Z,99.90
2022-11-03T18:02:57.228Z,99.90
2022-11-03T18:05:28.757Z,99.90
2022-11-03T18:07:57.872Z,99.90
2022-11-03T18:13:21.072Z,99.90
2022-11-03T18:15:52.893Z,99.90
2022-11-03T18:18:26.922Z,99.90
2022-11-03T18:23:26.541Z,99.90
2022-11-03T18:25:56.458Z,99.90
2022-11-03T18:28:26.883Z,99.90
2022-11-03T18:30:57.519Z,99.90
2022-11-03T18:33:28.431Z,99.90
2022-11-03T18:38:27.114Z,99.90
2022-11-03T18:43:27.903Z,99.90
2022-11-03T18:45:57.560Z,99.90
2022-11-03T18:50:57.005Z,99.90
2022-11-03T18:53:28.484Z,99.90
2022-11-03T18:56:00.906Z,99.90
2022-11-03T18:58:31.223Z,99.90
2022-11-03T19:03:29.516Z,99.90
2022-11-03T19:08:30.134Z,99.90
2022-11-03T19:11:03.761Z,99.90
2022-11-03T19:13:36.841Z,99.90
2022-11-03T19:16:13.747Z,99.90
2022-11-03T19:18:43.270Z,99.90
2022-11-03T19:21:16.136Z,99.90
2022-11-03T19:26:21.611Z,99.90
2022-11-03T19:28:54.349Z,99.90
2022-11-03T19:31:26.198Z,99.90
2022-11-03T19:33:57.980Z,99.90
2022-11-03T19:44:14.428Z,99.90
2022-11-03T19:46:43.241Z,99.90
2022-11-03T19:49:15.657Z,99.90
2022-11-03T19:54:17.759Z,99.90
2022-11-03T19:59:19.307Z,99.90
2022-11-03T20:04:18.683Z,99.90
2022-11-03T20:09:19.168Z,99.90
2022-11-03T20:14:21.965Z,99.90
2022-11-03T20:24:18.920Z,99.90
2022-11-03T20:29:17.876Z,99.90
2022-11-03T20:31:46.336Z,99.90
2022-11-03T20:34:15.401Z,99.90
2022-11-03T20:39:15.023Z,99.90
2022-11-03T20:41:47.034Z,99.90
2022-11-03T20:46:45.708Z,99.90
2022-11-03T20:51:45.384Z,99.90
2022-11-03T20:54:16.605Z,99.90
2022-11-03T20:56:46.103Z,99.90
2022-11-03T20:59:16.858Z,99.90
2022-11-03T21:01:46.899Z,99.90
2022-11-03T21:04:17.173Z,99.90
2022-11-03T21:09:15.298Z,99.90
2022-11-03T21:14:17.104Z,99.90
2022-11-03T21:17:04.278Z,99.90
2022-11-03T21:19:56.384Z,99.90
2022-11-03T21:25:25.017Z,99.90
2022-11-03T21:30:24.455Z,99.90
2022-11-03T21:32:54.269Z,99.90
2022-11-03T21:35:23.299Z,99.90
2022-11-03T21:48:22.737Z,99.90
2022-11-03T21:55:49.624Z,99.90
2022-11-03T22:03:17.120Z,99.90
2022-11-03T22:18:31.210Z,99.90
2022-11-03T22:32:14.996Z,99.90
2022-11-03T22:35:02.007Z,99.90
2022-11-03T22:50:42.532Z,99.90
2022-11-03T23:06:01.651Z,99.90
2022-11-03T23:08:32.585Z,99.90
2022-11-03T23:11:09.632Z,99.90
2022-11-03T23:16:14.618Z,99.90
2022-11-03T23:21:31.170Z,99.90
2022-11-03T23:29:15.299Z,99.90
2022-11-03T23:31:44.580Z,99.90
2022-11-03T23:34:14.432Z,99.90
2022-11-03T23:36:44.807Z,99.90
2022-11-03T23:39:15.325Z,99.90
2022-11-03T23:51:58.849Z,99.90
